Time;durP1;ratioP1;P1;durP2;ratioP2;P2;SDS_P1;SDS_P2;PMS_P1;PMS_P2;Temp;Humidity;BMP_temperature;BMP_pressure;BME280_temperature;BME280_humidity;BME280_pressure;Samples;Min_cycle;Max_cycle;Signal;HPM_P1;HPM_P2
2021/04/24 00:00:53;;;;;;;25.63;6.15;;;19.40;44.80;;;;;;5125676;27;20054;-39
2021/04/24 00:03:20;;;;;;;30.90;6.45;;;19.40;44.70;;;;;;5125690;27;20414;-38
2021/04/24 00:05:46;;;;;;;25.20;6.20;;;19.40;44.70;;;;;;5125860;27;20044;-39
2021/04/24 00:08:15;;;;;;;28.15;7.25;;;19.40;44.70;;;;;;5125990;27;20063;-38
2021/04/24 00:10:45;;;;;;;21.35;6.38;;;19.40;44.70;;;;;;5126480;27;20103;-39
2021/04/24 00:13:14;;;;;;;24.58;7.30;;;19.40;45.40;;;;;;5124409;27;20051;-38
2021/04/24 00:15:44;;;;;;;29.20;6.72;;;19.40;44.80;;;;;;5124444;27;20058;-38
2021/04/24 00:18:14;;;;;;;24.75;6.72;;;19.40;44.80;;;;;;5124463;27;20041;-38
2021/04/24 00:20:42;;;;;;;21.70;6.40;;;19.40;44.70;;;;;;5125077;27;20130;-38
2021/04/24 00:23:09;;;;;;;16.65;5.70;;;19.40;44.80;;;;;;5124216;27;20100;-38
2021/04/24 00:25:36;;;;;;;22.33;6.85;;;19.40;44.70;;;;;;5125350;27;20131;-38
2021/04/24 00:28:03;;;;;;;27.00;6.43;;;19.40;44.70;;;;;;5125710;27;20050;-38
2021/04/24 00:30:30;;;;;;;21.55;6.05;;;19.40;44.70;;;;;;5126440;27;20051;-38
2021/04/24 00:32:57;;;;;;;23.88;5.88;;;19.40;44.70;;;;;;5124263;27;20052;-38
2021/04/24 00:35:24;;;;;;;24.70;6.05;;;19.40;44.70;;;;;;5124510;27;20086;-38
2021/04/24 00:37:51;;;;;;;23.27;5.65;;;19.40;44.70;;;;;;5125653;27;20479;-38
2021/04/24 00:40:19;;;;;;;23.58;6.15;;;19.40;44.70;;;;;;5125125;27;20039;-38
2021/04/24 00:42:47;;;;;;;25.10;6.20;;;19.40;44.70;;;;;;5124464;27;20622;-37
2021/04/24 00:45:18;;;;;;;21.65;5.72;;;19.40;44.70;;;;;;5124639;27;20621;-38
2021/04/24 00:47:45;;;;;;;22.80;5.57;;;19.40;44.70;;;;;;5125317;27;20047;-37
2021/04/24 00:50:16;;;;;;;25.45;5.97;;;19.40;44.70;;;;;;5124993;27;20040;-39
2021/04/24 00:52:43;;;;;;;15.70;5.38;;;19.40;44.70;;;;;;5125820;27;20413;-37
2021/04/24 00:55:11;;;;;;;19.20;6.05;;;19.40;44.70;;;;;;5124250;27;20051;-38
2021/04/24 00:57:38;;;;;;;22.00;5.90;;;19.40;44.70;;;;;;5123443;27;20047;-38
2021/04/24 01:00:08;;;;;;;15.65;5.43;;;19.40;44.70;;;;;;5124990;27;20054;-37
2021/04/24 01:02:37;;;;;;;20.35;5.63;;;19.40;44.70;;;;;;5124281;27;20044;-37
2021/04/24 01:05:07;;;;;;;21.90;5.35;;;19.40;44.70;;;;;;5125725;27;20046;-37
2021/04/24 01:07:34;;;;;;;22.27;6.28;;;19.40;44.70;;;;;;5125603;27;20134;-37
2021/04/24 01:10:04;;;;;;;20.75;5.53;;;19.40;44.70;;;;;;5124079;27;20039;-37
2021/04/24 01:12:31;;;;;;;20.52;6.28;;;19.30;44.60;;;;;;5107406;27;20229;-38
2021/04/24 01:14:58;;;;;;;17.25;5.50;;;19.30;44.60;;;;;;5122723;27;20055;-37
2021/04/24 01:17:25;;;;;;;15.23;5.22;;;19.40;44.70;;;;;;5124030;27;20052;-37
2021/04/24 01:19:52;;;;;;;19.58;4.93;;;19.40;44.70;;;;;;5124212;27;20055;-38
2021/04/24 01:22:19;;;;;;;21.67;5.82;;;19.30;44.60;;;;;;5124070;27;20170;-37
2021/04/24 01:24:46;;;;;;;14.23;5.22;;;19.40;44.70;;;;;;5124290;27;20040;-37
2021/04/24 01:27:13;;;;;;;23.15;5.70;;;19.40;44.70;;;;;;5124899;27;20086;-37
2021/04/24 01:29:42;;;;;;;21.58;6.22;;;19.30;44.60;;;;;;5123875;27;20050;-38
2021/04/24 01:32:09;;;;;;;13.10;5.15;;;19.40;44.70;;;;;;5124379;27;20039;-37
2021/04/24 01:34:36;;;;;;;19.83;5.97;;;19.40;44.70;;;;;;5124434;27;20047;-37
2021/04/24 01:37:03;;;;;;;16.95;4.82;;;19.40;44.70;;;;;;5124158;27;20061;-37
2021/04/24 01:39:31;;;;;;;15.18;5.30;;;19.30;44.50;;;;;;5122479;27;20047;-38
2021/04/24 01:41:59;;;;;;;22.65;6.53;;;19.30;44.60;;;;;;5123139;27;20061;-38
2021/04/24 01:44:26;;;;;;;17.35;5.22;;;19.30;45.20;;;;;;5123278;27;20157;-37
2021/04/24 01:46:53;;;;;;;20.70;5.43;;;19.30;44.50;;;;;;5119945;27;20055;-37
2021/04/24 01:49:20;;;;;;;22.25;5.38;;;19.30;44.60;;;;;;5117220;27;20147;-38
2021/04/24 01:51:47;;;;;;;18.30;5.57;;;19.40;44.70;;;;;;5128818;27;20058;-37
2021/04/24 01:54:13;;;;;;;17.15;5.72;;;19.30;44.50;;;;;;5119436;27;20437;-37
2021/04/24 01:56:53;;;;;;;17.25;4.63;;;19.30;44.60;;;;;;5114327;27;20048;-37
2021/04/24 01:59:25;;;;;;;19.08;4.95;;;19.30;44.50;;;;;;5128915;27;20401;-37
2021/04/24 02:01:55;;;;;;;17.10;5.15;;;19.30;44.50;;;;;;5131329;27;20051;-37
2021/04/24 02:04:24;;;;;;;16.58;5.53;;;19.30;44.60;;;;;;5132573;27;20565;-37
2021/04/24 02:06:51;;;;;;;14.52;4.78;;;19.30;44.50;;;;;;5131406;27;20045;-38
2021/04/24 02:09:19;;;;;;;14.48;4.75;;;19.30;44.60;;;;;;5131412;27;20043;-38
2021/04/24 02:12:05;;;;;;;18.95;5.07;;;19.40;44.60;;;;;;5133522;27;20509;-38
2021/04/24 02:14:46;;;;;;;15.68;5.20;;;19.40;44.60;;;;;;5130847;27;20063;-38
2021/04/24 02:17:15;;;;;;;18.38;4.88;;;19.40;44.60;;;;;;5130875;27;20058;-38
2021/04/24 02:19:44;;;;;;;16.65;5.10;;;19.30;44.50;;;;;;5119757;27;20044;-38
2021/04/24 02:22:12;;;;;;;17.65;5.05;;;19.30;44.50;;;;;;5129657;27;20043;-37
2021/04/24 02:24:43;;;;;;;16.00;5.00;;;19.30;44.50;;;;;;5131903;27;20047;-38
2021/04/24 02:27:11;;;;;;;15.93;5.15;;;19.30;44.50;;;;;;5133394;27;20047;-37
2021/04/24 02:29:40;;;;;;;17.05;4.90;;;19.30;44.50;;;;;;5131583;27;20129;-38
2021/04/24 02:32:09;;;;;;;17.35;6.03;;;19.30;44.50;;;;;;5122589;27;20521;-38
2021/04/24 02:34:41;;;;;;;25.85;5.35;;;19.30;44.50;;;;;;5117492;27;20047;-38
2021/04/24 02:37:09;;;;;;;17.00;5.15;;;19.30;44.50;;;;;;5109890;28;20051;-37
2021/04/24 02:39:39;;;;;;;13.48;4.35;;;19.30;44.50;;;;;;5116506;27;20062;-37
2021/04/24 02:42:09;;;;;;;18.88;5.15;;;19.30;44.50;;;;;;5120907;27;20062;-38
2021/04/24 02:44:36;;;;;;;13.65;5.35;;;19.30;44.50;;;;;;5125674;27;20403;-37
2021/04/24 02:47:28;;;;;;;9.95;4.15;;;19.30;44.50;;;;;;5119663;27;20510;-38
2021/04/24 02:49:54;;;;;;;15.35;4.60;;;19.30;44.50;;;;;;5133325;27;20046;-37
2021/04/24 02:52:21;;;;;;;16.17;4.97;;;19.30;44.50;;;;;;5123800;27;20051;-37
2021/04/24 02:54:48;;;;;;;14.60;5.13;;;19.30;44.50;;;;;;5120349;28;20043;-37
2021/04/24 02:57:15;;;;;;;12.57;4.55;;;19.30;44.50;;;;;;5133195;27;20051;-38
2021/04/24 02:59:41;;;;;;;15.90;4.20;;;19.30;44.50;;;;;;5131923;28;20043;-38
2021/04/24 03:02:08;;;;;;;13.27;4.53;;;19.30;44.50;;;;;;5131537;28;20514;-38
2021/04/24 03:04:35;;;;;;;14.40;4.93;;;19.30;44.50;;;;;;5131330;28;20047;-37
2021/04/24 03:07:02;;;;;;;11.90;4.65;;;19.30;44.50;;;;;;5131577;28;20036;-38
2021/04/24 03:09:28;;;;;;;13.35;4.38;;;19.30;44.50;;;;;;5132881;28;20051;-38
2021/04/24 03:11:55;;;;;;;16.58;4.75;;;19.30;44.50;;;;;;5131844;28;20053;-38
2021/04/24 03:14:22;;;;;;;14.65;5.10;;;19.30;44.50;;;;;;5114567;28;20066;-37
2021/04/24 03:16:51;;;;;;;15.18;4.63;;;19.30;44.50;;;;;;5131536;28;20096;-38
2021/04/24 03:19:19;;;;;;;13.85;4.50;;;19.30;44.50;;;;;;5130378;28;20126;-38
2021/04/24 03:21:46;;;;;;;14.18;4.97;;;19.30;44.50;;;;;;5131299;28;20055;-37
2021/04/24 03:24:13;;;;;;;11.95;3.78;;;19.30;44.50;;;;;;5131665;28;20047;-38
2021/04/24 03:26:40;;;;;;;14.50;4.22;;;19.30;44.40;;;;;;5114934;28;20052;-37
2021/04/24 03:29:06;;;;;;;12.05;4.55;;;19.30;44.40;;;;;;5113030;28;20047;-37
2021/04/24 03:31:33;;;;;;;18.95;4.70;;;19.30;44.40;;;;;;5113006;28;20056;-37
2021/04/24 03:34:00;;;;;;;16.67;4.40;;;19.30;44.40;;;;;;5113493;28;20048;-37
2021/04/24 03:36:27;;;;;;;12.90;4.40;;;19.30;44.40;;;;;;5114498;28;20136;-37
2021/04/24 03:38:54;;;;;;;16.23;4.63;;;19.30;44.40;;;;;;5114310;28;20449;-37
2021/04/24 03:41:21;;;;;;;17.02;4.20;;;19.30;44.40;;;;;;5116082;28;20048;-37
2021/04/24 03:43:48;;;;;;;9.13;3.92;;;19.30;44.40;;;;;;5115903;28;20051;-38
2021/04/24 03:46:15;;;;;;;16.65;4.53;;;19.30;44.40;;;;;;5122762;28;20406;-37
2021/04/24 03:48:42;;;;;;;9.07;3.97;;;19.30;44.40;;;;;;5130060;28;20070;-37
2021/04/24 03:51:09;;;;;;;11.50;4.35;;;19.30;44.40;;;;;;5130159;28;20047;-37
2021/04/24 03:53:35;;;;;;;11.95;4.32;;;19.30;44.40;;;;;;5128668;28;20052;-37
2021/04/24 03:56:02;;;;;;;13.85;4.50;;;19.30;44.40;;;;;;5131392;28;20053;-37
2021/04/24 03:58:29;;;;;;;14.45;3.95;;;19.30;44.40;;;;;;5129265;28;20490;-37
2021/04/24 04:00:56;;;;;;;11.57;4.00;;;19.30;44.40;;;;;;5132261;28;20047;-37
2021/04/24 04:03:23;;;;;;;11.25;4.50;;;19.30;44.40;;;;;;5133558;27;20475;-38
2021/04/24 04:05:50;;;;;;;7.97;3.72;;;19.30;44.40;;;;;;5134986;27;20114;-37
2021/04/24 04:08:17;;;;;;;12.88;4.22;;;19.30;44.40;;;;;;5116833;27;20422;-37
2021/04/24 04:10:49;;;;;;;12.57;3.97;;;19.30;44.40;;;;;;5134368;27;20039;-37
2021/04/24 04:13:16;;;;;;;12.80;4.15;;;19.30;44.40;;;;;;5133726;27;20043;-38
2021/04/24 04:15:43;;;;;;;14.65;4.28;;;19.30;44.40;;;;;;5133294;27;20462;-37
2021/04/24 04:18:32;;;;;;;12.65;3.80;;;19.30;45.00;;;;;;5133898;27;20039;-36
2021/04/24 04:20:59;;;;;;;16.23;4.57;;;19.30;44.40;;;;;;5134338;27;20047;-37
2021/04/24 04:23:25;;;;;;;11.25;4.15;;;19.30;44.30;;;;;;5135610;27;20085;-37
2021/04/24 04:25:54;;;;;;;9.57;3.65;;;19.30;44.30;;;;;;5117411;27;20048;-37
2021/04/24 04:28:21;;;;;;;13.35;4.20;;;19.30;44.30;;;;;;5116064;27;20062;-37
2021/04/24 04:30:50;;;;;;;12.40;3.95;;;19.30;44.30;;;;;;5118924;27;20074;-37
2021/04/24 04:33:17;;;;;;;14.93;4.38;;;19.30;44.30;;;;;;5132394;27;20047;-37
2021/04/24 04:35:45;;;;;;;10.80;4.22;;;19.30;45.00;;;;;;5131978;27;20393;-37
2021/04/24 04:38:12;;;;;;;12.05;4.10;;;19.30;44.40;;;;;;5135240;27;20043;-37
2021/04/24 04:40:39;;;;;;;11.60;4.30;;;19.30;44.30;;;;;;5121531;27;20051;-38
2021/04/24 04:43:06;;;;;;;10.38;3.67;;;19.30;44.30;;;;;;5128733;27;20097;-38
2021/04/24 04:45:33;;;;;;;11.23;3.78;;;19.30;44.30;;;;;;5132922;27;20062;-38
2021/04/24 04:48:00;;;;;;;12.95;3.83;;;19.30;44.30;;;;;;5134008;27;20055;-39
2021/04/24 04:50:31;;;;;;;11.30;4.00;;;19.30;44.30;;;;;;5133784;27;20095;-37
2021/04/24 04:52:58;;;;;;;12.25;4.38;;;19.30;44.30;;;;;;5132524;27;20054;-38
2021/04/24 04:55:26;;;;;;;9.35;3.92;;;19.30;44.30;;;;;;5132405;27;20055;-39
2021/04/24 04:57:54;;;;;;;11.73;4.13;;;19.30;44.30;;;;;;5132221;27;20055;-38
2021/04/24 05:00:22;;;;;;;10.40;4.07;;;19.30;44.30;;;;;;5132135;27;20043;-39
2021/04/24 05:02:50;;;;;;;9.07;3.30;;;19.30;44.30;;;;;;5132150;27;20035;-38
2021/04/24 05:05:17;;;;;;;10.55;4.00;;;19.30;44.30;;;;;;5133509;27;20067;-38
2021/04/24 05:07:45;;;;;;;11.85;3.63;;;19.30;44.30;;;;;;5131253;27;20392;-38
2021/04/24 05:10:23;;;;;;;11.32;3.88;;;19.30;44.30;;;;;;5133161;27;20091;-38
2021/04/24 05:12:51;;;;;;;13.02;4.07;;;19.30;44.30;;;;;;5130091;27;20055;-38
2021/04/24 05:15:20;;;;;;;12.85;4.07;;;19.30;44.30;;;;;;5122728;27;20047;-37
2021/04/24 05:17:47;;;;;;;7.50;3.42;;;19.40;44.30;;;;;;5123621;27;20079;-38
2021/04/24 05:20:15;;;;;;;11.15;3.70;;;19.40;44.30;;;;;;5123619;27;20040;-38
2021/04/24 05:22:47;;;;;;;10.45;3.50;;;19.40;44.30;;;;;;5122839;27;20043;-39
2021/04/24 05:25:15;;;;;;;13.65;4.00;;;19.30;44.30;;;;;;5124954;27;20039;-38
2021/04/24 05:27:45;;;;;;;11.05;3.92;;;19.40;44.30;;;;;;5124330;27;20043;-38
2021/04/24 05:30:13;;;;;;;8.48;3.42;;;19.40;44.30;;;;;;5123619;27;20051;-38
2021/04/24 05:32:39;;;;;;;13.77;4.03;;;19.40;44.30;;;;;;5123611;27;20460;-38
2021/04/24 05:35:07;;;;;;;12.95;3.58;;;19.40;44.30;;;;;;5121673;27;20060;-38
2021/04/24 05:37:33;;;;;;;11.23;4.35;;;19.40;44.30;;;;;;5123297;27;20122;-37
2021/04/24 05:40:00;;;;;;;12.77;3.70;;;19.40;44.30;;;;;;5122923;27;20043;-38
2021/04/24 05:42:30;;;;;;;11.52;3.47;;;19.40;44.30;;;;;;5122429;27;20078;-38
2021/04/24 05:44:58;;;;;;;8.40;3.08;;;19.40;44.30;;;;;;5123428;27;20379;-39
2021/04/24 05:47:25;;;;;;;11.02;3.55;;;19.40;44.30;;;;;;5124285;27;20043;-38
2021/04/24 05:49:52;;;;;;;11.18;3.95;;;19.40;44.20;;;;;;5123399;27;20102;-38
2021/04/24 05:52:19;;;;;;;12.07;3.63;;;19.40;44.20;;;;;;5123071;27;20051;-38
2021/04/24 05:54:46;;;;;;;7.88;3.33;;;19.40;44.20;;;;;;5123063;27;20417;-38
2021/04/24 05:57:13;;;;;;;10.93;4.07;;;19.40;44.20;;;;;;5123981;27;20046;-38
2021/04/24 05:59:40;;;;;;;8.65;3.28;;;19.40;44.20;;;;;;5123199;27;20043;-38
2021/04/24 06:02:07;;;;;;;8.27;3.35;;;19.40;44.20;;;;;;5122802;27;20543;-38
2021/04/24 06:04:34;;;;;;;8.77;3.38;;;19.40;44.20;;;;;;5124919;27;20070;-38
2021/04/24 06:07:01;;;;;;;14.13;3.63;;;19.40;44.20;;;;;;5122716;27;20116;-38
2021/04/24 06:09:28;;;;;;;10.05;3.75;;;19.40;44.20;;;;;;5122892;27;20125;-38
2021/04/24 06:11:55;;;;;;;8.00;3.50;;;19.40;44.20;;;;;;5122322;27;20490;-38
2021/04/24 06:14:22;;;;;;;7.22;3.13;;;19.40;44.20;;;;;;5123157;27;20047;-38
2021/04/24 06:16:48;;;;;;;7.38;3.08;;;19.40;44.20;;;;;;5123283;27;20051;-38
2021/04/24 06:19:15;;;;;;;9.68;3.60;;;19.40;44.20;;;;;;5124386;27;20055;-38
2021/04/24 06:21:42;;;;;;;9.20;3.00;;;19.40;44.20;;;;;;5121979;27;20042;-38
2021/04/24 06:24:09;;;;;;;10.82;3.13;;;19.40;44.20;;;;;;5124136;27;20440;-38
2021/04/24 06:26:36;;;;;;;8.90;4.20;;;19.40;44.20;;;;;;5122919;27;20039;-38
2021/04/24 06:29:03;;;;;;;9.65;3.47;;;19.40;44.20;;;;;;5123502;27;20051;-38
2021/04/24 06:31:30;;;;;;;8.32;3.10;;;19.40;44.10;;;;;;5122650;27;20073;-38
2021/04/24 06:33:56;;;;;;;6.47;3.38;;;19.40;44.10;;;;;;5121511;27;20130;-38
2021/04/24 06:36:23;;;;;;;6.10;2.90;;;19.40;44.10;;;;;;5122534;27;20055;-38
2021/04/24 06:38:50;;;;;;;9.80;3.65;;;19.40;44.10;;;;;;5121203;27;20055;-38
2021/04/24 06:41:17;;;;;;;9.38;3.10;;;19.40;44.10;;;;;;5122150;27;20536;-38
2021/04/24 06:43:44;;;;;;;10.23;3.20;;;19.40;44.10;;;;;;5124030;27;20047;-38
2021/04/24 06:46:11;;;;;;;11.10;3.08;;;19.40;44.10;;;;;;5123503;27;20071;-38
2021/04/24 06:48:39;;;;;;;9.88;3.05;;;19.40;44.10;;;;;;5122752;27;20487;-38
2021/04/24 06:51:06;;;;;;;7.75;3.10;;;19.40;44.10;;;;;;5121469;27;20047;-38
2021/04/24 06:53:32;;;;;;;6.53;2.95;;;19.40;44.10;;;;;;5121515;27;20052;-39
2021/04/24 06:55:59;;;;;;;7.90;2.85;;;19.40;44.10;;;;;;5121915;27;20050;-38
2021/04/24 06:58:26;;;;;;;8.45;3.40;;;19.40;44.10;;;;;;5123722;27;20065;-38
2021/04/24 07:00:54;;;;;;;9.68;3.00;;;19.40;44.10;;;;;;5121454;28;20043;-38
2021/04/24 07:03:24;;;;;;;9.07;3.17;;;19.40;44.10;;;;;;5122116;28;20055;-38
2021/04/24 07:05:51;;;;;;;7.57;3.10;;;19.40;44.10;;;;;;5121660;28;20055;-38
2021/04/24 07:08:19;;;;;;;7.68;3.22;;;19.40;44.10;;;;;;5122429;27;20050;-38
2021/04/24 07:10:46;;;;;;;6.85;2.75;;;19.40;44.00;;;;;;5122077;27;20051;-38
2021/04/24 07:13:13;;;;;;;8.32;3.17;;;19.40;44.00;;;;;;5123272;27;20055;-38
2021/04/24 07:15:40;;;;;;;8.27;3.10;;;19.40;44.00;;;;;;5121783;28;20427;-38
2021/04/24 07:18:07;;;;;;;8.73;3.28;;;19.40;44.00;;;;;;5121165;27;20058;-38
2021/04/24 07:20:35;;;;;;;7.80;3.00;;;19.40;44.00;;;;;;5122174;27;20126;-38
2021/04/24 07:23:02;;;;;;;9.27;3.50;;;19.40;44.00;;;;;;5122510;28;20035;-38
2021/04/24 07:25:29;;;;;;;7.88;2.90;;;19.40;44.00;;;;;;5122554;27;20402;-39
2021/04/24 07:27:56;;;;;;;6.40;2.58;;;19.40;44.00;;;;;;5102726;28;20043;-38
2021/04/24 07:30:23;;;;;;;7.95;2.67;;;19.40;43.90;;;;;;5121926;28;20054;-38
2021/04/24 07:32:50;;;;;;;8.70;2.90;;;19.40;43.90;;;;;;5121686;28;20411;-37
2021/04/24 07:35:17;;;;;;;9.93;2.78;;;19.40;43.90;;;;;;5121745;27;20076;-37
2021/04/24 07:37:44;;;;;;;8.02;2.53;;;19.50;44.60;;;;;;5120205;27;20054;-40
2021/04/24 07:40:13;;;;;;;6.28;2.72;;;19.40;43.90;;;;;;5125726;27;20054;-38
2021/04/24 07:42:41;;;;;;;5.32;2.72;;;19.40;43.90;;;;;;5125108;27;20051;-38
2021/04/24 07:45:08;;;;;;;9.02;2.70;;;19.40;43.90;;;;;;5126507;27;20039;-38
2021/04/24 07:47:35;;;;;;;7.78;2.80;;;19.50;44.00;;;;;;5109172;27;20054;-38
2021/04/24 07:50:03;;;;;;;5.90;2.60;;;19.50;44.00;;;;;;5125478;27;20043;-39
2021/04/24 07:52:29;;;;;;;6.38;2.60;;;19.50;44.00;;;;;;5126453;27;20109;-38
2021/04/24 07:54:56;;;;;;;10.77;2.95;;;19.50;44.00;;;;;;5125731;27;20043;-38
2021/04/24 07:57:23;;;;;;;6.70;2.80;;;19.50;44.00;;;;;;5125830;27;20055;-38
2021/04/24 07:59:49;;;;;;;5.00;2.13;;;19.50;44.00;;;;;;5125389;27;20048;-39
2021/04/24 08:02:16;;;;;;;6.28;2.58;;;19.50;44.00;;;;;;5126255;27;20047;-37
2021/04/24 08:04:43;;;;;;;6.45;2.80;;;19.50;44.00;;;;;;5124545;27;20051;-38
2021/04/24 08:07:10;;;;;;;6.65;2.83;;;19.50;44.00;;;;;;5126067;27;20589;-38
2021/04/24 08:09:39;;;;;;;4.95;2.63;;;19.50;44.00;;;;;;5125252;27;20079;-37
2021/04/24 08:12:07;;;;;;;6.20;2.72;;;19.50;44.00;;;;;;5105289;27;20056;-37
2021/04/24 08:14:34;;;;;;;7.50;2.45;;;19.50;44.00;;;;;;5125589;27;20047;-37
2021/04/24 08:17:01;;;;;;;6.50;2.45;;;19.50;44.00;;;;;;5124642;27;20044;-37
2021/04/24 08:19:28;;;;;;;4.85;2.22;;;19.50;44.00;;;;;;5126475;27;20114;-38
2021/04/24 08:21:56;;;;;;;7.60;2.65;;;19.50;44.00;;;;;;5125768;27;20047;-38
2021/04/24 08:24:23;;;;;;;6.40;2.38;;;19.50;44.00;;;;;;5124869;27;20044;-38
2021/04/24 08:26:50;;;;;;;5.78;2.38;;;19.50;44.00;;;;;;5124233;27;20521;-38
2021/04/24 08:29:18;;;;;;;4.85;2.58;;;19.50;44.10;;;;;;5107435;27;20051;-38
2021/04/24 08:31:45;;;;;;;8.57;2.80;;;19.50;44.00;;;;;;5125303;27;20059;-38
2021/04/24 08:34:14;;;;;;;4.00;2.20;;;19.50;44.10;;;;;;5125526;27;20047;-37
2021/04/24 08:36:41;;;;;;;5.90;2.40;;;19.50;44.00;;;;;;5124359;27;20530;-38
2021/04/24 08:39:08;;;;;;;5.68;2.50;;;19.50;44.00;;;;;;5125711;27;20043;-38
2021/04/24 08:41:36;;;;;;;4.90;2.42;;;19.50;44.00;;;;;;5123721;27;20055;-38
2021/04/24 08:44:03;;;;;;;6.03;2.45;;;19.50;44.00;;;;;;5125479;27;20040;-39
2021/04/24 08:46:30;;;;;;;5.63;2.15;;;19.60;44.10;;;;;;5125420;27;20039;-38
2021/04/24 08:48:58;;;;;;;6.40;2.38;;;19.60;44.10;;;;;;5123334;27;20466;-37
2021/04/24 08:51:28;;;;;;;7.75;2.83;;;19.60;44.20;;;;;;5123625;27;20048;-38
2021/04/24 08:53:59;;;;;;;7.70;2.72;;;19.60;44.10;;;;;;5123961;27;20054;-38
2021/04/24 08:56:28;;;;;;;6.35;2.22;;;19.60;44.10;;;;;;5124519;27;20051;-38
2021/04/24 08:58:58;;;;;;;7.13;2.30;;;19.60;44.10;;;;;;5122113;27;20043;-38
2021/04/24 09:01:26;;;;;;;6.95;2.20;;;19.60;44.20;;;;;;5121181;27;20093;-38
2021/04/24 09:03:53;;;;;;;5.75;2.38;;;19.60;44.10;;;;;;5122925;27;20043;-38
2021/04/24 09:06:22;;;;;;;6.13;2.63;;;19.60;44.20;;;;;;5125609;27;20511;-38
2021/04/24 09:08:55;;;;;;;3.95;2.10;;;19.60;44.20;;;;;;5122797;27;20043;-38
2021/04/24 09:11:24;;;;;;;6.30;2.27;;;19.60;44.20;;;;;;5124985;27;20055;-38
2021/04/24 09:14:01;;;;;;;6.75;2.28;;;19.60;44.20;;;;;;5125340;27;20050;-38
2021/04/24 09:16:32;;;;;;;6.18;2.60;;;19.60;44.80;;;;;;5123360;27;20050;-38
2021/04/24 09:18:59;;;;;;;6.72;2.28;;;19.60;44.20;;;;;;5124167;27;20039;-38
2021/04/24 09:21:29;;;;;;;4.53;2.67;;;19.60;44.20;;;;;;5124778;27;20059;-38
2021/04/24 09:23:56;;;;;;;4.80;2.00;;;19.60;44.20;;;;;;5124133;27;20050;-39
2021/04/24 09:26:29;;;;;;;6.50;2.60;;;19.60;44.30;;;;;;5123971;27;20035;-38
2021/04/24 09:29:02;;;;;;;4.80;2.28;;;19.60;44.30;;;;;;5123909;27;20043;-38
2021/04/24 09:31:32;;;;;;;4.60;2.35;;;19.60;44.20;;;;;;5124539;27;20050;-39
2021/04/24 09:34:00;;;;;;;4.80;2.20;;;19.60;44.20;;;;;;5123454;27;20042;-38
2021/04/24 09:36:38;;;;;;;9.50;2.03;;;19.60;44.20;;;;;;5124515;27;20047;-39
2021/04/24 09:39:09;;;;;;;6.70;2.25;;;19.60;44.30;;;;;;5122848;27;20453;-38
2021/04/24 09:41:43;;;;;;;5.75;2.20;;;19.60;44.30;;;;;;5123997;27;20059;-38
2021/04/24 09:44:12;;;;;;;5.75;2.25;;;19.60;44.30;;;;;;5124326;27;20050;-39
2021/04/24 09:46:47;;;;;;;5.15;2.15;;;19.60;44.40;;;;;;5123888;27;20054;-38
2021/04/24 09:49:22;;;;;;;6.75;2.28;;;19.60;44.40;;;;;;5106109;27;20051;-38
2021/04/24 09:51:49;;;;;;;3.92;2.28;;;19.60;44.40;;;;;;5123011;27;20043;-39
2021/04/24 09:54:17;;;;;;;6.47;2.10;;;19.60;44.60;;;;;;5124229;27;20055;-38
2021/04/24 09:57:04;;;;;;;8.68;3.28;;;19.60;44.70;;;;;;5124343;27;20112;-38
2021/04/24 09:59:52;;;;;;;6.80;2.58;;;19.60;44.70;;;;;;5123154;27;20050;-38
2021/04/24 10:02:38;;;;;;;5.88;2.13;;;19.70;44.90;;;;;;5122650;27;20039;-38
2021/04/24 10:05:25;;;;;;;3.78;1.90;;;19.70;45.00;;;;;;5122930;27;20130;-38
2021/04/24 10:07:58;;;;;;;5.57;2.15;;;19.60;45.00;;;;;;5122742;27;20051;-37
2021/04/24 10:10:39;;;;;;;10.40;2.50;;;19.70;45.00;;;;;;5122581;27;20058;-37
2021/04/24 10:13:09;;;;;;;7.18;2.53;;;19.70;45.00;;;;;;5122276;27;20043;-38
2021/04/24 10:15:44;;;;;;;7.03;2.40;;;19.70;45.00;;;;;;5122983;27;20138;-38
2021/04/24 10:18:12;;;;;;;6.82;2.03;;;19.70;45.20;;;;;;5123587;27;20134;-38
2021/04/24 10:20:41;;;;;;;7.20;2.20;;;19.70;45.20;;;;;;5105010;27;20039;-38
2021/04/24 10:23:09;;;;;;;7.10;2.33;;;19.70;45.20;;;;;;5121179;27;20491;-37
2021/04/24 10:25:36;;;;;;;8.73;2.38;;;19.70;45.30;;;;;;5105142;27;20048;-38
2021/04/24 10:28:04;;;;;;;6.95;2.10;;;19.70;45.30;;;;;;5121951;27;20495;-38
2021/04/24 10:30:31;;;;;;;4.90;2.33;;;19.70;45.50;;;;;;5123020;27;20071;-38
2021/04/24 10:32:57;;;;;;;5.50;1.90;;;19.70;45.60;;;;;;5122644;27;20071;-38
2021/04/24 10:35:27;;;;;;;8.00;2.13;;;19.70;45.50;;;;;;5123184;27;20047;-39
2021/04/24 10:37:55;;;;;;;7.20;2.30;;;19.70;45.60;;;;;;5123752;27;20047;-38
2021/04/24 10:40:22;;;;;;;4.93;1.92;;;19.70;45.80;;;;;;5122871;27;20050;-38
2021/04/24 10:42:53;;;;;;;7.18;2.42;;;19.70;45.80;;;;;;5121208;27;20048;-38
2021/04/24 10:45:31;;;;;;;5.53;2.00;;;19.70;45.80;;;;;;5122781;27;20039;-38
2021/04/24 10:47:58;;;;;;;7.80;2.03;;;19.70;45.80;;;;;;5123266;27;20050;-39
2021/04/24 10:50:47;;;;;;;6.35;2.30;;;19.70;45.90;;;;;;5122242;27;20055;-38
2021/04/24 10:53:28;;;;;;;5.97;2.22;;;19.70;46.00;;;;;;5122491;27;20371;-38
2021/04/24 10:55:56;;;;;;;8.57;2.33;;;19.70;46.00;;;;;;5122454;27;20050;-39
2021/04/24 10:58:25;;;;;;;6.88;2.25;;;19.70;46.00;;;;;;5121766;27;20052;-38
2021/04/24 11:01:05;;;;;;;7.78;2.17;;;19.70;46.00;;;;;;5121894;28;20100;-38
2021/04/24 11:03:35;;;;;;;6.05;1.60;;;19.70;45.90;;;;;;5121617;28;20092;-39
2021/04/24 11:06:17;;;;;;;6.65;2.17;;;19.70;45.90;;;;;;5122356;28;20042;-38
2021/04/24 11:08:45;;;;;;;6.47;2.03;;;19.70;46.00;;;;;;5104282;28;20044;-38
2021/04/24 11:11:13;;;;;;;8.30;2.42;;;19.70;46.00;;;;;;5122686;27;20515;-38
2021/04/24 11:13:47;;;;;;;5.60;2.17;;;19.70;46.00;;;;;;5123666;27;20057;-38
2021/04/24 11:16:16;;;;;;;9.88;2.05;;;19.70;46.00;;;;;;5127864;27;20091;-38
2021/04/24 11:18:48;;;;;;;5.68;1.90;;;19.70;46.00;;;;;;5126959;27;20082;-38
2021/04/24 11:21:17;;;;;;;5.30;2.03;;;19.70;46.40;;;;;;5126010;27;20511;-38
2021/04/24 11:24:13;;;;;;;6.72;2.28;;;19.70;46.00;;;;;;5127595;27;20092;-38
2021/04/24 11:26:45;;;;;;;5.15;2.05;;;19.70;46.00;;;;;;5127264;27;20047;-38
2021/04/24 11:29:21;;;;;;;7.55;2.13;;;19.70;46.00;;;;;;5125699;27;20047;-38
2021/04/24 11:31:49;;;;;;;5.03;2.20;;;19.70;45.90;;;;;;5125607;27;20047;-38
2021/04/24 11:34:27;;;;;;;4.10;2.13;;;19.70;45.90;;;;;;5127130;27;20112;-38
2021/04/24 11:37:16;;;;;;;6.15;2.08;;;19.70;46.00;;;;;;5126991;27;20402;-38
2021/04/24 11:40:12;;;;;;;5.50;2.10;;;19.70;45.90;;;;;;5125869;27;20043;-37
2021/04/24 11:42:50;;;;;;;4.80;1.98;;;19.70;45.90;;;;;;5120809;27;20043;-38
2021/04/24 11:45:42;;;;;;;3.75;1.70;;;19.70;45.90;;;;;;5125861;27;20054;-38
2021/04/24 11:48:09;;;;;;;5.82;1.95;;;19.70;45.90;;;;;;5108280;27;20107;-38
2021/04/24 11:50:41;;;;;;;2.88;1.88;;;19.70;45.90;;;;;;5126763;27;20444;-38
2021/04/24 11:53:09;;;;;;;6.00;1.90;;;19.70;45.90;;;;;;5124878;27;20047;-38
2021/04/24 11:55:39;;;;;;;3.92;2.03;;;19.70;45.90;;;;;;5126715;27;20411;-37
2021/04/24 11:58:07;;;;;;;4.88;2.40;;;19.70;45.90;;;;;;5125238;27;20047;-38
2021/04/24 12:00:35;;;;;;;5.47;1.85;;;19.70;45.90;;;;;;5125411;27;20044;-38
2021/04/24 12:03:03;;;;;;;5.65;2.50;;;19.70;45.80;;;;;;5124101;27;20563;-38
2021/04/24 12:05:30;;;;;;;4.28;1.77;;;19.70;45.80;;;;;;5124919;27;20126;-38
2021/04/24 12:07:57;;;;;;;4.53;2.13;;;19.70;45.80;;;;;;5124059;27;20040;-38
2021/04/24 12:10:29;;;;;;;6.55;2.15;;;19.70;45.80;;;;;;5108358;27;20047;-38
2021/04/24 12:13:10;;;;;;;4.50;1.98;;;19.70;45.80;;;;;;5125398;27;20495;-38
2021/04/24 12:15:38;;;;;;;4.35;1.73;;;19.70;45.70;;;;;;5124499;27;20104;-39
2021/04/24 12:18:07;;;;;;;4.80;1.73;;;19.70;45.80;;;;;;5126169;27;20415;-38
2021/04/24 12:20:37;;;;;;;3.10;1.70;;;19.70;45.70;;;;;;5124051;27;20050;-38
2021/04/24 12:23:10;;;;;;;7.78;2.10;;;19.70;45.80;;;;;;5125940;27;20092;-38
2021/04/24 12:25:40;;;;;;;4.72;1.92;;;19.70;45.70;;;;;;5125098;27;20043;-38
2021/04/24 12:28:09;;;;;;;3.95;1.67;;;19.70;45.70;;;;;;5125779;27;20104;-39
2021/04/24 12:30:42;;;;;;;7.18;2.20;;;19.70;45.70;;;;;;5124234;27;20047;-38
2021/04/24 12:33:11;;;;;;;3.85;2.00;;;19.70;45.70;;;;;;5125655;27;20061;-40
2021/04/24 12:35:39;;;;;;;6.18;2.03;;;19.70;45.70;;;;;;5125350;27;20448;-39
2021/04/24 12:38:11;;;;;;;3.70;1.83;;;19.70;45.60;;;;;;5123302;27;20051;-39
2021/04/24 12:40:44;;;;;;;5.15;1.90;;;19.70;45.60;;;;;;5125182;27;20046;-39
2021/04/24 12:43:25;;;;;;;6.88;1.80;;;19.70;45.60;;;;;;5125260;27;20151;-38
2021/04/24 12:45:55;;;;;;;9.85;2.00;;;19.70;45.60;;;;;;5124488;27;20222;-38
2021/04/24 12:48:43;;;;;;;6.55;1.73;;;19.70;45.60;;;;;;5125098;27;20048;-39
2021/04/24 12:51:18;;;;;;;5.18;1.90;;;19.70;46.20;;;;;;5125955;27;20055;-38
2021/04/24 12:53:47;;;;;;;5.85;1.88;;;19.70;45.60;;;;;;5125589;27;20539;-38